createdAt,value
2023-05-21T00:01:07.129Z,13.23
2023-05-21T00:03:36.206Z,13.20
2023-05-21T00:06:04.040Z,13.13
2023-05-21T00:08:31.097Z,13.19
2023-05-21T00:10:58.186Z,13.12
2023-05-21T00:13:25.105Z,13.10
2023-05-21T00:15:51.863Z,13.07
2023-05-21T00:18:18.521Z,12.98
2023-05-21T00:20:45.767Z,12.93
2023-05-21T00:23:12.736Z,12.96
2023-05-21T00:25:39.462Z,12.93
2023-05-21T00:28:06.071Z,12.86
2023-05-21T00:30:32.671Z,12.87
2023-05-21T00:33:02.497Z,12.88
2023-05-21T00:35:29.713Z,12.87
2023-05-21T00:37:56.371Z,12.77
2023-05-21T00:40:23.254Z,12.75
2023-05-21T00:42:49.934Z,12.72
2023-05-21T00:45:16.707Z,12.76
2023-05-21T00:47:43.908Z,12.61
2023-05-21T00:50:11.830Z,12.50
2023-05-21T00:52:42.158Z,12.46
2023-05-21T00:55:09.996Z,12.44
2023-05-21T00:57:39.300Z,12.50
2023-05-21T01:00:08.793Z,12.48
2023-05-21T01:02:37.316Z,12.46
2023-05-21T01:05:08.211Z,12.48
2023-05-21T01:07:36.506Z,12.43
2023-05-21T01:10:07.931Z,12.56
2023-05-21T01:12:35.592Z,12.61
2023-05-21T01:15:04.035Z,12.62
2023-05-21T01:17:31.868Z,12.63
2023-05-21T01:19:59.194Z,12.64
2023-05-21T01:22:29.001Z,12.77
2023-05-21T01:24:56.792Z,12.70
2023-05-21T01:27:23.512Z,12.71
2023-05-21T01:29:50.363Z,12.65
2023-05-21T01:32:44.214Z,12.56
2023-05-21T01:35:18.842Z,12.53
2023-05-21T01:37:52.273Z,12.59
2023-05-21T01:40:30.107Z,12.75
2023-05-21T01:42:57.286Z,12.78
2023-05-21T01:45:25.297Z,12.70
2023-05-21T01:47:54.155Z,12.59
2023-05-21T01:50:22.875Z,12.49
2023-05-21T01:52:54.856Z,12.41
2023-05-21T01:55:28.198Z,12.41
2023-05-21T01:57:55.841Z,12.40
2023-05-21T02:00:24.586Z,12.37
2023-05-21T02:02:51.952Z,12.38
2023-05-21T02:05:18.914Z,12.38
2023-05-21T02:07:47.902Z,12.39
2023-05-21T02:10:14.510Z,12.38
2023-05-21T02:12:41.938Z,12.41
2023-05-21T02:15:09.274Z,12.45
2023-05-21T02:17:38.167Z,12.49
2023-05-21T02:20:11.776Z,12.45
2023-05-21T02:22:43.910Z,12.40
2023-05-21T02:25:12.026Z,12.42
2023-05-21T02:27:39.608Z,12.36
2023-05-21T02:30:08.564Z,12.32
2023-05-21T02:32:35.623Z,12.27
2023-05-21T02:35:03.812Z,12.25
2023-05-21T02:37:33.938Z,12.23
2023-05-21T02:40:01.797Z,12.24
2023-05-21T02:42:28.385Z,12.17
2023-05-21T02:44:55.048Z,12.12
2023-05-21T02:47:23.635Z,12.14
2023-05-21T02:49:51.504Z,12.14
2023-05-21T02:52:19.734Z,12.10
2023-05-21T02:54:46.953Z,12.06
2023-05-21T02:57:13.757Z,11.97
2023-05-21T02:59:40.661Z,12.02
2023-05-21T03:02:07.522Z,11.94
2023-05-21T03:04:38.806Z,11.91
2023-05-21T03:07:06.167Z,12.01
2023-05-21T03:09:32.699Z,12.08
2023-05-21T03:11:59.200Z,12.09
2023-05-21T03:14:26.464Z,12.21
2023-05-21T03:16:53.075Z,12.36
2023-05-21T03:19:20.944Z,12.53
2023-05-21T03:21:49.058Z,12.45
2023-05-21T03:24:15.608Z,12.60
2023-05-21T03:26:42.323Z,12.59
2023-05-21T03:29:09.004Z,12.48
2023-05-21T03:31:35.937Z,12.44
2023-05-21T03:34:02.480Z,12.46
2023-05-21T03:36:29.129Z,12.51
2023-05-21T03:38:56.049Z,12.51
2023-05-21T03:41:22.628Z,12.42
2023-05-21T03:43:49.237Z,12.47
2023-05-21T03:46:15.972Z,12.51
2023-05-21T03:48:42.609Z,12.68
2023-05-21T03:51:09.608Z,12.61
2023-05-21T03:53:37.052Z,12.80
2023-05-21T03:56:03.664Z,12.79
2023-05-21T03:58:30.283Z,12.65
2023-05-21T04:00:56.826Z,12.56
2023-05-21T04:03:23.528Z,12.59
2023-05-21T04:05:50.181Z,12.62
2023-05-21T04:08:16.852Z,12.72
2023-05-21T04:10:43.628Z,12.93
2023-05-21T04:13:10.513Z,13.12
2023-05-21T04:15:38.665Z,13.12
2023-05-21T04:18:07.280Z,13.24
2023-05-21T04:20:33.953Z,13.40
2023-05-21T04:23:01.381Z,13.53
2023-05-21T04:25:28.551Z,13.63
2023-05-21T04:27:55.242Z,13.68
2023-05-21T04:30:22.059Z,13.61
2023-05-21T04:32:48.886Z,13.66
2023-05-21T04:35:15.601Z,13.81
2023-05-21T04:37:42.424Z,13.85
2023-05-21T04:40:09.841Z,14.06
2023-05-21T04:42:36.723Z,14.15
2023-05-21T04:45:03.666Z,14.26
2023-05-21T04:47:30.359Z,14.45
2023-05-21T04:49:57.317Z,14.59
2023-05-21T04:52:25.104Z,14.76
2023-05-21T04:54:51.838Z,15.00
2023-05-21T04:57:19.130Z,15.19
2023-05-21T04:59:46.985Z,15.39
2023-05-21T05:02:13.653Z,15.47
2023-05-21T05:04:40.463Z,15.54
2023-05-21T05:07:07.523Z,15.89
2023-05-21T05:09:34.060Z,16.03
2023-05-21T05:12:00.924Z,16.29
2023-05-21T05:14:27.676Z,16.42
2023-05-21T05:16:54.701Z,16.39
2023-05-21T05:19:21.454Z,16.84
2023-05-21T05:21:48.142Z,17.33
2023-05-21T05:24:16.200Z,17.50
2023-05-21T05:26:42.896Z,17.97
2023-05-21T05:29:09.828Z,18.56
2023-05-21T05:31:36.379Z,19.21
2023-05-21T05:34:02.949Z,19.66
2023-05-21T05:36:29.782Z,20.09
2023-05-21T05:38:56.392Z,20.28
2023-05-21T05:41:23.180Z,21.03
2023-05-21T05:43:49.913Z,21.72
2023-05-21T05:46:16.642Z,22.19
2023-05-21T05:48:43.509Z,22.06
2023-05-21T05:51:11.910Z,22.13
2023-05-21T05:53:38.736Z,22.15
2023-05-21T05:56:05.929Z,21.57
2023-05-21T05:58:32.770Z,21.85
2023-05-21T06:01:00.599Z,21.98
2023-05-21T06:03:28.222Z,22.32
2023-05-21T06:05:55.379Z,22.99
2023-05-21T06:08:21.938Z,22.79
2023-05-21T06:10:48.677Z,22.55
2023-05-21T06:13:15.218Z,22.77
2023-05-21T06:15:44.704Z,23.23
2023-05-21T06:18:11.707Z,23.51
2023-05-21T06:20:38.559Z,23.76
2023-05-21T06:23:06.476Z,24.27
2023-05-21T06:25:33.102Z,24.66
2023-05-21T06:27:59.690Z,23.93
2023-05-21T06:30:26.838Z,23.67
2023-05-21T06:32:53.611Z,23.91
2023-05-21T06:35:20.503Z,23.72
2023-05-21T06:37:48.650Z,23.34
2023-05-21T06:40:15.548Z,23.25
2023-05-21T06:42:42.083Z,23.31
2023-05-21T06:45:09.157Z,23.30
2023-05-21T06:47:35.940Z,23.63
2023-05-21T06:50:02.633Z,23.94
2023-05-21T06:52:31.655Z,23.88
2023-05-21T06:54:58.515Z,23.84
2023-05-21T06:57:25.038Z,23.94
2023-05-21T06:59:51.639Z,23.97
2023-05-21T07:02:18.257Z,23.88
2023-05-21T07:04:45.130Z,23.86
2023-05-21T07:07:11.913Z,23.55
2023-05-21T07:09:38.552Z,23.69
2023-05-21T07:12:05.559Z,23.82
2023-05-21T07:14:32.254Z,23.98
2023-05-21T07:16:59.057Z,23.98
2023-05-21T07:19:25.712Z,23.87
2023-05-21T07:21:52.646Z,22.98
2023-05-21T07:24:19.306Z,23.51
2023-05-21T07:26:46.080Z,23.56
2023-05-21T07:29:12.577Z,23.54
2023-05-21T07:31:39.422Z,23.84
2023-05-21T07:34:06.056Z,24.02
2023-05-21T07:36:33.795Z,24.59
2023-05-21T07:39:00.939Z,25.02
2023-05-21T07:41:27.471Z,26.15
2023-05-21T07:43:54.127Z,26.47
2023-05-21T07:46:20.859Z,27.35
2023-05-21T07:48:48.419Z,27.73
2023-05-21T07:51:16.560Z,27.80
2023-05-21T07:53:43.079Z,27.82
2023-05-21T07:56:09.967Z,28.02
2023-05-21T07:58:36.536Z,28.60
2023-05-21T08:01:03.152Z,28.97
2023-05-21T08:03:33.009Z,29.64
2023-05-21T08:06:00.005Z,30.18
2023-05-21T08:08:26.701Z,30.08
2023-05-21T08:10:53.286Z,29.17
2023-05-21T08:13:20.178Z,29.60
2023-05-21T08:15:47.101Z,29.24
2023-05-21T08:18:13.755Z,29.22
2023-05-21T08:20:41.348Z,28.78
2023-05-21T08:23:07.923Z,28.81
2023-05-21T08:25:34.972Z,28.80
2023-05-21T08:28:01.620Z,29.66
2023-05-21T08:30:28.356Z,30.16
2023-05-21T08:32:55.316Z,29.68
2023-05-21T08:35:22.100Z,30.19
2023-05-21T08:37:48.664Z,30.56
2023-05-21T08:40:15.672Z,29.91
2023-05-21T08:42:47.402Z,30.09
2023-05-21T08:45:18.525Z,30.34
2023-05-21T08:47:45.235Z,29.99
2023-05-21T08:50:13.792Z,30.91
2023-05-21T08:52:41.139Z,30.88
2023-05-21T08:55:08.983Z,31.25
2023-05-21T08:57:36.634Z,32.90
2023-05-21T09:00:06.346Z,33.33
2023-05-21T09:02:40.533Z,34.04
2023-05-21T09:05:09.313Z,33.57
2023-05-21T09:08:02.493Z,33.82
2023-05-21T09:10:34.746Z,34.31
2023-05-21T09:13:02.688Z,34.13
2023-05-21T09:15:29.794Z,33.47
2023-05-21T09:17:56.527Z,33.36
2023-05-21T09:20:27.322Z,33.65
2023-05-21T09:22:55.387Z,34.09
2023-05-21T09:25:25.186Z,34.51
2023-05-21T09:27:51.707Z,34.99
2023-05-21T09:30:21.023Z,35.51
2023-05-21T09:32:56.336Z,35.95
2023-05-21T09:35:23.151Z,37.07
2023-05-21T09:37:52.402Z,36.57
2023-05-21T09:40:21.602Z,35.14
2023-05-21T09:42:53.352Z,35.44
2023-05-21T09:45:21.591Z,35.50
2023-05-21T09:47:50.280Z,36.57
2023-05-21T09:50:27.874Z,35.86
2023-05-21T09:52:55.603Z,33.37
2023-05-21T09:55:23.467Z,33.91
2023-05-21T09:57:51.051Z,34.05
2023-05-21T10:00:23.298Z,33.47
2023-05-21T10:02:54.157Z,34.09
2023-05-21T10:05:21.350Z,34.20
2023-05-21T10:07:51.326Z,34.71
2023-05-21T10:10:21.102Z,35.04
2023-05-21T10:12:48.793Z,34.75
2023-05-21T10:15:17.377Z,34.26
2023-05-21T10:17:44.595Z,34.59
2023-05-21T10:20:12.509Z,34.55
2023-05-21T10:22:39.995Z,35.70
2023-05-21T10:25:07.947Z,36.92
2023-05-21T10:27:37.658Z,37.08
2023-05-21T10:30:05.867Z,36.05
2023-05-21T10:32:33.394Z,35.13
2023-05-21T10:35:02.008Z,34.05
2023-05-21T10:37:29.277Z,33.28
2023-05-21T10:39:56.585Z,33.43
2023-05-21T10:42:32.564Z,32.67
2023-05-21T10:45:07.896Z,33.01
2023-05-21T10:48:12.580Z,32.67
2023-05-21T10:51:08.221Z,33.44
2023-05-21T10:53:44.194Z,31.36
2023-05-21T10:56:29.567Z,30.03
2023-05-21T10:59:26.780Z,29.03
2023-05-21T11:01:54.169Z,29.82
2023-05-21T11:04:27.013Z,32.12
2023-05-21T11:06:53.604Z,33.94
2023-05-21T11:09:20.454Z,35.42
2023-05-21T11:11:58.145Z,35.47
2023-05-21T11:14:39.143Z,35.29
2023-05-21T11:17:40.225Z,34.54
2023-05-21T11:20:14.278Z,34.03
2023-05-21T11:22:41.158Z,33.14
2023-05-21T11:25:08.412Z,34.82
2023-05-21T11:27:38.741Z,33.48
2023-05-21T11:30:09.828Z,33.49
2023-05-21T11:32:41.175Z,34.60
2023-05-21T11:35:08.168Z,35.46
2023-05-21T11:37:35.109Z,35.72
2023-05-21T11:40:25.668Z,35.89
2023-05-21T11:42:53.835Z,33.39
2023-05-21T11:45:22.333Z,32.68
2023-05-21T11:47:50.084Z,32.89
2023-05-21T11:50:17.622Z,33.14
2023-05-21T11:52:44.801Z,33.43
2023-05-21T11:55:11.559Z,32.99
2023-05-21T11:57:41.732Z,32.98
2023-05-21T12:00:15.289Z,33.10
2023-05-21T12:02:51.247Z,33.13
2023-05-21T12:05:18.350Z,31.98
2023-05-21T12:07:50.029Z,32.06
2023-05-21T12:10:17.208Z,32.54
2023-05-21T12:12:54.697Z,32.58
2023-05-21T12:15:25.034Z,32.90
2023-05-21T12:17:53.197Z,32.65
2023-05-21T12:20:28.545Z,32.50
2023-05-21T12:22:57.063Z,32.03
2023-05-21T12:25:23.927Z,31.52
2023-05-21T12:27:58.764Z,30.91
2023-05-21T12:30:26.076Z,29.95
2023-05-21T12:32:52.779Z,28.95
2023-05-21T12:35:23.840Z,29.19
2023-05-21T12:37:51.114Z,30.31
2023-05-21T12:40:18.280Z,30.21
2023-05-21T12:42:45.295Z,30.90
2023-05-21T12:45:12.614Z,30.91
2023-05-21T12:47:39.288Z,30.66
2023-05-21T12:50:11.853Z,31.30
2023-05-21T12:52:40.542Z,31.63
2023-05-21T12:55:09.544Z,32.42
2023-05-21T12:57:38.720Z,32.46
2023-05-21T13:00:07.014Z,32.77
2023-05-21T13:02:35.852Z,31.78
2023-05-21T13:05:04.562Z,32.34
2023-05-21T13:07:32.961Z,32.23
2023-05-21T13:10:01.095Z,31.26
2023-05-21T13:12:29.757Z,30.11
2023-05-21T13:15:01.553Z,30.02
2023-05-21T13:17:28.746Z,30.31
2023-05-21T13:20:12.732Z,30.43
2023-05-21T13:22:43.857Z,30.24
2023-05-21T13:25:11.739Z,30.63
2023-05-21T13:27:39.579Z,31.22
2023-05-21T13:30:07.083Z,31.22
2023-05-21T13:32:34.465Z,31.14
2023-05-21T13:35:01.584Z,31.31
2023-05-21T13:37:28.261Z,31.74
2023-05-21T13:39:54.866Z,31.02
2023-05-21T13:42:21.489Z,30.41
2023-05-21T13:44:48.677Z,30.26
2023-05-21T13:47:15.673Z,30.36
2023-05-21T13:49:42.869Z,30.55
2023-05-21T13:52:10.109Z,29.41
2023-05-21T13:54:36.827Z,29.06
2023-05-21T13:57:03.919Z,29.48
2023-05-21T13:59:33.260Z,29.74
2023-05-21T14:02:00.852Z,29.98
2023-05-21T14:04:28.061Z,30.00
2023-05-21T14:06:54.897Z,29.99
2023-05-21T14:09:23.333Z,29.25
2023-05-21T14:11:50.182Z,29.48
2023-05-21T14:14:19.071Z,28.87
2023-05-21T14:16:47.148Z,28.28
2023-05-21T14:19:14.442Z,28.16
2023-05-21T14:21:41.824Z,28.68
2023-05-21T14:24:08.591Z,28.94
2023-05-21T14:26:42.648Z,28.83
2023-05-21T14:29:09.800Z,28.76
2023-05-21T14:31:36.647Z,29.03
2023-05-21T14:34:03.661Z,29.50
2023-05-21T14:36:30.217Z,28.69
2023-05-21T14:38:56.810Z,28.93
2023-05-21T14:41:27.190Z,28.47
2023-05-21T14:43:54.763Z,28.29
2023-05-21T14:46:22.382Z,28.41
2023-05-21T14:48:49.212Z,28.50
2023-05-21T14:51:16.020Z,28.76
2023-05-21T14:53:42.751Z,28.28
2023-05-21T14:56:09.580Z,28.22
2023-05-21T14:58:36.226Z,28.30
2023-05-21T15:01:04.272Z,27.93
2023-05-21T15:03:31.157Z,28.31
2023-05-21T15:05:58.576Z,28.15
2023-05-21T15:08:25.392Z,28.27
2023-05-21T15:10:51.998Z,27.90
2023-05-21T15:13:18.878Z,27.78
2023-05-21T15:15:45.507Z,28.01
2023-05-21T15:18:12.186Z,27.65
2023-05-21T15:20:39.110Z,27.60
2023-05-21T15:23:16.198Z,27.66
2023-05-21T15:25:44.785Z,27.49
2023-05-21T15:28:14.676Z,27.95
2023-05-21T15:30:41.375Z,27.84
2023-05-21T15:33:08.616Z,27.63
2023-05-21T15:35:36.352Z,27.93
2023-05-21T15:38:03.409Z,27.94
2023-05-21T15:40:30.066Z,27.77
2023-05-21T15:42:56.538Z,27.00
2023-05-21T15:45:24.879Z,27.23
2023-05-21T15:47:51.540Z,27.49
2023-05-21T15:50:18.271Z,27.47
2023-05-21T15:52:44.755Z,27.38
2023-05-21T15:55:11.435Z,27.04
2023-05-21T15:57:38.053Z,27.12
2023-05-21T16:00:05.049Z,26.96
2023-05-21T16:02:31.998Z,26.66
2023-05-21T16:04:59.076Z,26.70
2023-05-21T16:07:25.841Z,26.67
2023-05-21T16:09:52.538Z,26.84
2023-05-21T16:12:19.440Z,26.41
2023-05-21T16:14:49.765Z,26.43
2023-05-21T16:17:16.659Z,26.50
2023-05-21T16:19:43.494Z,26.52
2023-05-21T16:22:10.970Z,26.67
2023-05-21T16:24:37.915Z,26.61
2023-05-21T16:27:05.004Z,26.55
2023-05-21T16:29:31.970Z,26.58
2023-05-21T16:31:58.688Z,26.50
2023-05-21T16:34:25.640Z,26.55
2023-05-21T16:36:52.340Z,26.53
2023-05-21T16:39:19.030Z,26.25
2023-05-21T16:41:45.698Z,26.35
2023-05-21T16:44:12.582Z,26.33
2023-05-21T16:46:39.636Z,26.46
2023-05-21T16:49:07.147Z,26.47
2023-05-21T16:51:34.179Z,25.96
2023-05-21T16:54:02.386Z,25.82
2023-05-21T16:56:29.246Z,25.72
2023-05-21T16:58:56.140Z,25.58
2023-05-21T17:01:22.890Z,25.44
2023-05-21T17:03:49.659Z,25.45
2023-05-21T17:06:16.222Z,25.25
2023-05-21T17:08:42.862Z,25.18
2023-05-21T17:11:10.079Z,25.27
2023-05-21T17:13:36.691Z,25.03
2023-05-21T17:16:03.364Z,25.04
2023-05-21T17:18:31.256Z,24.88
2023-05-21T17:20:58.870Z,24.84
2023-05-21T17:23:25.839Z,24.75
2023-05-21T17:25:52.625Z,24.70
2023-05-21T17:28:19.432Z,24.69
2023-05-21T17:30:48.675Z,24.58
2023-05-21T17:33:16.176Z,24.48
2023-05-21T17:35:42.944Z,24.45
2023-05-21T17:38:10.346Z,24.27
2023-05-21T17:40:36.905Z,24.27
2023-05-21T17:43:04.581Z,24.12
2023-05-21T17:45:31.443Z,24.10
2023-05-21T17:47:59.974Z,24.00
2023-05-21T17:50:27.304Z,24.00
2023-05-21T17:52:53.885Z,23.89
2023-05-21T17:55:20.740Z,23.85
2023-05-21T17:57:47.229Z,23.83
2023-05-21T18:00:14.283Z,23.62
2023-05-21T18:02:41.380Z,23.60
2023-05-21T18:05:08.164Z,23.47
2023-05-21T18:07:34.708Z,23.43
2023-05-21T18:10:01.774Z,23.30
2023-05-21T18:12:28.399Z,23.28
2023-05-21T18:14:55.315Z,23.15
2023-05-21T18:17:22.334Z,23.15
2023-05-21T18:19:48.951Z,23.04
2023-05-21T18:22:15.558Z,22.99
2023-05-21T18:24:42.678Z,22.91
2023-05-21T18:27:09.119Z,22.92
2023-05-21T18:29:36.708Z,22.87
2023-05-21T18:32:04.129Z,22.68
2023-05-21T18:34:30.753Z,22.71
2023-05-21T18:36:58.760Z,22.66
2023-05-21T18:39:27.121Z,22.55
2023-05-21T18:42:08.907Z,22.44
2023-05-21T18:44:39.178Z,22.40
2023-05-21T18:47:07.580Z,22.35
2023-05-21T18:49:35.733Z,22.16
2023-05-21T18:52:02.485Z,22.06
2023-05-21T18:54:29.008Z,22.03
2023-05-21T18:56:59.535Z,21.98
2023-05-21T18:59:27.156Z,21.84
2023-05-21T19:01:54.538Z,21.85
2023-05-21T19:04:21.471Z,21.73
2023-05-21T19:06:48.238Z,21.73
2023-05-21T19:09:15.101Z,21.58
2023-05-21T19:11:41.870Z,21.56
2023-05-21T19:14:08.636Z,21.53
2023-05-21T19:16:35.540Z,21.44
2023-05-21T19:19:03.327Z,21.18
2023-05-21T19:21:30.066Z,21.15
2023-05-21T19:23:56.867Z,21.01
2023-05-21T19:26:24.221Z,20.91
2023-05-21T19:28:53.692Z,20.87
2023-05-21T19:31:21.112Z,20.76
2023-05-21T19:33:48.271Z,20.70
2023-05-21T19:36:15.289Z,20.66
2023-05-21T19:38:49.255Z,20.54
2023-05-21T19:41:19.857Z,20.68
2023-05-21T19:43:46.486Z,20.64
2023-05-21T19:46:15.971Z,20.63
2023-05-21T19:48:44.827Z,20.68
2023-05-21T19:51:11.460Z,20.52
2023-05-21T19:53:38.282Z,20.44
2023-05-21T19:56:04.821Z,20.29
2023-05-21T19:58:31.505Z,20.27
2023-05-21T20:00:59.309Z,20.25
2023-05-21T20:03:26.853Z,20.16
2023-05-21T20:05:53.846Z,20.05
2023-05-21T20:08:20.780Z,19.93
2023-05-21T20:10:50.337Z,20.07
2023-05-21T20:13:18.037Z,19.97
2023-05-21T20:15:44.683Z,19.99
2023-05-21T20:18:12.661Z,20.05
2023-05-21T20:20:40.915Z,20.03
2023-05-21T20:23:07.795Z,19.97
2023-05-21T20:25:34.316Z,19.97
2023-05-21T20:28:05.046Z,20.03
2023-05-21T20:30:33.185Z,20.05
2023-05-21T20:33:03.212Z,19.93
2023-05-21T20:35:30.159Z,19.74
2023-05-21T20:37:56.672Z,19.63
2023-05-21T20:40:23.255Z,19.57
2023-05-21T20:42:53.389Z,19.46
2023-05-21T20:45:21.125Z,19.36
2023-05-21T20:47:48.277Z,19.21
2023-05-21T20:50:17.423Z,19.10
2023-05-21T20:52:46.903Z,19.00
2023-05-21T20:55:14.597Z,18.93
2023-05-21T20:57:41.875Z,18.86
2023-05-21T21:00:10.935Z,18.74
2023-05-21T21:02:39.684Z,18.70
2023-05-21T21:05:10.542Z,18.61
2023-05-21T21:07:37.333Z,18.49
2023-05-21T21:10:04.384Z,18.49
2023-05-21T21:12:31.258Z,18.37
2023-05-21T21:14:57.794Z,18.31
2023-05-21T21:17:24.921Z,18.34
2023-05-21T21:19:51.493Z,18.26
2023-05-21T21:22:18.577Z,18.24
2023-05-21T21:24:45.566Z,18.18
2023-05-21T21:27:12.280Z,18.14
2023-05-21T21:29:38.806Z,18.07
2023-05-21T21:32:06.155Z,17.97
2023-05-21T21:34:32.601Z,17.94
2023-05-21T21:36:59.013Z,17.87
2023-05-21T21:39:26.814Z,17.82
2023-05-21T21:41:53.416Z,17.78
2023-05-21T21:44:19.996Z,17.73
2023-05-21T21:46:46.799Z,17.70
2023-05-21T21:49:14.404Z,17.72
2023-05-21T21:51:41.015Z,17.69
2023-05-21T21:54:07.434Z,17.62
2023-05-21T21:56:33.946Z,17.57
2023-05-21T21:59:00.522Z,17.53
2023-05-21T22:01:27.933Z,17.50
2023-05-21T22:03:54.439Z,17.47
2023-05-21T22:06:20.990Z,17.43
2023-05-21T22:08:47.653Z,17.37
2023-05-21T22:11:14.323Z,17.28
2023-05-21T22:13:41.758Z,17.17
2023-05-21T22:16:08.282Z,17.10
2023-05-21T22:18:41.013Z,16.97
2023-05-21T22:21:09.180Z,16.87
2023-05-21T22:23:36.669Z,16.79
2023-05-21T22:26:03.520Z,16.76
2023-05-21T22:28:30.003Z,16.72
2023-05-21T22:30:56.492Z,16.65
2023-05-21T22:33:23.009Z,16.66
2023-05-21T22:35:49.567Z,16.66
2023-05-21T22:38:16.055Z,16.65
2023-05-21T22:40:42.469Z,16.66
2023-05-21T22:43:08.918Z,16.65
2023-05-21T22:45:38.222Z,16.65
2023-05-21T22:48:08.479Z,16.64
2023-05-21T22:50:35.238Z,16.58
2023-05-21T22:53:01.805Z,16.62
2023-05-21T22:55:28.231Z,16.61
2023-05-21T22:57:54.679Z,16.62
2023-05-21T23:00:21.298Z,16.59
2023-05-21T23:02:48.189Z,16.61
2023-05-21T23:05:15.067Z,16.59
2023-05-21T23:07:42.768Z,16.57
2023-05-21T23:10:09.556Z,16.53
2023-05-21T23:12:36.909Z,16.50
2023-05-21T23:15:04.956Z,16.47
2023-05-21T23:17:32.199Z,16.44
2023-05-21T23:19:59.516Z,16.39
2023-05-21T23:22:26.381Z,16.32
2023-05-21T23:24:54.296Z,16.26
2023-05-21T23:27:21.244Z,16.23
2023-05-21T23:29:47.968Z,16.24
2023-05-21T23:32:14.881Z,16.21
2023-05-21T23:34:41.955Z,16.14
2023-05-21T23:37:08.641Z,16.06
2023-05-21T23:39:35.285Z,16.01
2023-05-21T23:42:02.117Z,15.96
2023-05-21T23:44:28.943Z,15.98
2023-05-21T23:46:55.767Z,15.89
2023-05-21T23:49:22.658Z,15.81
2023-05-21T23:51:52.302Z,15.69
2023-05-21T23:54:19.275Z,15.62
2023-05-21T23:56:46.472Z,15.60
2023-05-21T23:59:15.672Z,15.63
